createdAt,value
2022-12-27T00:00:16.485Z,2.54
2022-12-27T00:02:43.491Z,2.52
2022-12-27T00:05:11.609Z,2.32
2022-12-27T00:07:38.444Z,2.27
2022-12-27T00:10:06.341Z,2.33
2022-12-27T00:12:33.510Z,2.32
2022-12-27T00:15:00.443Z,2.28
2022-12-27T00:17:27.428Z,2.27
2022-12-27T00:19:54.220Z,2.35
2022-12-27T00:22:21.033Z,2.71
2022-12-27T00:24:47.888Z,2.76
2022-12-27T00:27:14.740Z,2.68
2022-12-27T00:29:41.589Z,2.77
2022-12-27T00:32:08.518Z,2.68
2022-12-27T00:34:36.002Z,2.89
2022-12-27T00:37:02.832Z,2.77
2022-12-27T00:39:29.619Z,2.83
2022-12-27T00:41:56.683Z,2.75
2022-12-27T00:44:23.502Z,2.91
2022-12-27T00:46:50.360Z,2.85
2022-12-27T00:49:17.232Z,2.73
2022-12-27T00:51:44.087Z,2.87
2022-12-27T00:54:11.008Z,2.67
2022-12-27T00:56:37.829Z,2.67
2022-12-27T00:59:05.118Z,2.69
2022-12-27T01:01:34.252Z,2.60
2022-12-27T01:04:01.552Z,2.60
2022-12-27T01:06:32.052Z,2.63
2022-12-27T01:08:59.736Z,2.85
2022-12-27T01:11:28.367Z,2.81
2022-12-27T01:13:59.855Z,2.82
2022-12-27T01:16:27.689Z,2.89
2022-12-27T01:18:54.735Z,2.94
2022-12-27T01:21:23.046Z,2.99
2022-12-27T01:23:50.287Z,2.95
2022-12-27T01:26:18.559Z,3.04
2022-12-27T01:28:46.152Z,2.94
2022-12-27T01:31:14.974Z,3.04
2022-12-27T01:33:41.975Z,3.08
2022-12-27T01:36:08.778Z,3.10
2022-12-27T01:38:35.626Z,3.11
2022-12-27T01:41:22.516Z,3.07
2022-12-27T01:43:49.357Z,2.96
2022-12-27T01:46:16.484Z,2.74
2022-12-27T01:48:43.473Z,2.75
2022-12-27T01:51:10.935Z,2.97
2022-12-27T01:53:39.447Z,2.98
2022-12-27T01:56:09.768Z,3.27
2022-12-27T01:58:42.461Z,3.15
2022-12-27T02:01:12.984Z,3.06
2022-12-27T02:03:41.461Z,3.04
2022-12-27T02:06:09.715Z,3.04
2022-12-27T02:08:55.998Z,3.03
2022-12-27T02:11:44.589Z,3.13
2022-12-27T02:14:11.950Z,3.23
2022-12-27T02:16:38.822Z,3.09
2022-12-27T02:19:08.436Z,3.22
2022-12-27T02:21:44.546Z,3.26
2022-12-27T02:24:23.526Z,3.32
2022-12-27T02:26:56.442Z,3.30
2022-12-27T02:29:32.146Z,3.38
2022-12-27T02:32:10.518Z,3.36
2022-12-27T02:34:43.081Z,3.32
2022-12-27T02:37:12.328Z,3.17
2022-12-27T02:39:41.562Z,3.27
2022-12-27T02:42:27.863Z,3.30
2022-12-27T02:45:17.578Z,3.44
2022-12-27T02:48:05.332Z,3.40
2022-12-27T02:50:57.388Z,3.58
2022-12-27T02:53:27.293Z,3.61
2022-12-27T02:56:12.806Z,3.56
2022-12-27T02:58:42.371Z,3.71
2022-12-27T03:01:27.803Z,3.57
2022-12-27T03:04:05.612Z,3.54
2022-12-27T03:06:52.795Z,3.61
2022-12-27T03:10:01.210Z,3.48
2022-12-27T03:12:55.928Z,3.38
2022-12-27T03:15:41.604Z,3.42
2022-12-27T03:18:14.316Z,3.12
2022-12-27T03:21:01.082Z,3.27
2022-12-27T03:23:46.678Z,3.54
2022-12-27T03:26:15.220Z,3.52
2022-12-27T03:29:02.765Z,3.48
2022-12-27T03:31:51.864Z,3.56
2022-12-27T03:34:39.802Z,3.57
2022-12-27T03:37:33.938Z,3.56
2022-12-27T03:40:07.051Z,3.62
2022-12-27T03:42:55.973Z,3.55
2022-12-27T03:45:42.761Z,3.55
2022-12-27T03:48:11.925Z,3.63
2022-12-27T03:50:50.991Z,3.65
2022-12-27T03:53:24.148Z,3.66
2022-12-27T03:55:51.115Z,3.45
2022-12-27T03:58:18.067Z,3.48
2022-12-27T04:00:44.956Z,3.46
2022-12-27T04:03:12.145Z,3.49
2022-12-27T04:05:39.017Z,3.43
2022-12-27T04:08:24.704Z,3.38
2022-12-27T04:11:10.265Z,3.32
2022-12-27T04:13:55.590Z,3.57
2022-12-27T04:16:41.194Z,3.56
2022-12-27T04:19:26.704Z,3.54
2022-12-27T04:22:12.160Z,3.60
2022-12-27T04:24:57.803Z,3.56
2022-12-27T04:27:43.563Z,3.66
2022-12-27T04:30:29.335Z,3.65
2022-12-27T04:33:15.075Z,2.88
2022-12-27T04:35:41.926Z,3.81
2022-12-27T04:38:08.817Z,3.87
2022-12-27T04:40:54.433Z,3.84
2022-12-27T04:43:39.959Z,3.83
2022-12-27T04:46:31.518Z,3.81
2022-12-27T04:49:33.662Z,3.92
2022-12-27T04:52:20.016Z,3.95
2022-12-27T04:54:59.108Z,3.93
2022-12-27T04:57:27.251Z,3.91
2022-12-27T05:00:12.739Z,3.81
2022-12-27T05:02:40.330Z,3.99
2022-12-27T05:05:07.768Z,4.11
2022-12-27T05:07:53.389Z,3.96
2022-12-27T05:10:39.221Z,4.04
2022-12-27T05:13:24.802Z,3.98
2022-12-27T05:15:51.625Z,4.18
2022-12-27T05:18:18.577Z,4.09
2022-12-27T05:20:45.451Z,4.17
2022-12-27T05:23:31.030Z,4.19
2022-12-27T05:25:57.843Z,4.30
2022-12-27T05:28:24.670Z,4.22
2022-12-27T05:30:51.497Z,4.24
2022-12-27T05:33:18.357Z,4.37
2022-12-27T05:35:45.269Z,4.35
2022-12-27T05:38:12.215Z,4.26
2022-12-27T05:40:39.025Z,4.35
2022-12-27T05:43:05.863Z,4.20
2022-12-27T05:45:32.777Z,4.32
2022-12-27T05:48:02.724Z,4.32
2022-12-27T05:50:29.769Z,4.16
2022-12-27T05:53:09.993Z,4.19
2022-12-27T05:55:36.830Z,4.22
2022-12-27T05:58:03.703Z,4.17
2022-12-27T06:00:30.637Z,4.24
2022-12-27T06:02:57.550Z,4.27
2022-12-27T06:05:24.529Z,4.18
2022-12-27T06:07:51.387Z,4.26
2022-12-27T06:10:19.992Z,4.29
2022-12-27T06:12:46.788Z,4.31
2022-12-27T06:15:13.668Z,4.10
2022-12-27T06:17:40.525Z,4.10
2022-12-27T06:20:07.583Z,4.27
2022-12-27T06:22:34.421Z,4.33
2022-12-27T06:25:01.247Z,4.24
2022-12-27T06:27:28.109Z,3.40
2022-12-27T06:29:54.927Z,4.20
2022-12-27T06:32:22.035Z,4.11
2022-12-27T06:34:48.872Z,4.25
2022-12-27T06:37:15.679Z,2.90
2022-12-27T06:39:42.518Z,4.20
2022-12-27T06:42:09.643Z,4.27
2022-12-27T06:44:36.551Z,4.19
2022-12-27T06:47:03.531Z,4.33
2022-12-27T06:49:30.415Z,4.31
2022-12-27T06:51:59.731Z,4.37
2022-12-27T06:54:27.042Z,4.26
2022-12-27T06:56:56.169Z,4.14
2022-12-27T06:59:23.457Z,4.13
2022-12-27T07:01:50.371Z,4.10
2022-12-27T07:04:17.540Z,4.15
2022-12-27T07:06:44.374Z,4.25
2022-12-27T07:09:11.275Z,4.25
2022-12-27T07:11:38.194Z,4.21
2022-12-27T07:14:08.341Z,4.16
2022-12-27T07:16:35.236Z,4.11
2022-12-27T07:19:02.181Z,4.23
2022-12-27T07:21:29.615Z,4.19
2022-12-27T07:23:56.816Z,4.22
2022-12-27T07:26:26.799Z,4.25
2022-12-27T07:28:54.670Z,4.15
2022-12-27T07:31:23.897Z,4.13
2022-12-27T07:33:51.049Z,4.31
2022-12-27T07:36:25.264Z,4.28
2022-12-27T07:38:52.356Z,4.28
2022-12-27T07:41:19.491Z,4.30
2022-12-27T07:43:46.350Z,4.34
2022-12-27T07:46:17.439Z,4.43
2022-12-27T07:48:44.524Z,4.41
2022-12-27T07:51:11.834Z,4.42
2022-12-27T07:53:39.072Z,4.45
2022-12-27T07:56:23.472Z,4.51
2022-12-27T07:58:53.666Z,4.60
2022-12-27T08:01:21.429Z,4.47
2022-12-27T08:03:48.610Z,4.52
2022-12-27T08:06:23.645Z,4.44
2022-12-27T08:08:51.389Z,4.49
2022-12-27T08:11:18.739Z,4.57
2022-12-27T08:13:45.647Z,4.57
2022-12-27T08:16:19.857Z,4.70
2022-12-27T08:18:46.844Z,4.63
2022-12-27T08:21:15.001Z,4.67
2022-12-27T08:23:42.134Z,4.79
2022-12-27T08:26:09.190Z,4.82
2022-12-27T08:28:36.100Z,4.79
2022-12-27T08:31:05.464Z,4.89
2022-12-27T08:33:32.312Z,4.89
2022-12-27T08:36:11.437Z,4.93
2022-12-27T08:38:52.962Z,4.94
2022-12-27T08:41:20.615Z,4.92
2022-12-27T08:43:47.988Z,4.96
2022-12-27T08:46:14.881Z,5.12
2022-12-27T08:48:41.884Z,5.10
2022-12-27T08:51:13.754Z,5.18
2022-12-27T08:53:42.476Z,5.16
2022-12-27T08:56:09.284Z,5.18
2022-12-27T08:58:36.501Z,5.21
2022-12-27T09:01:10.264Z,5.23
2022-12-27T09:03:37.183Z,5.35
2022-12-27T09:06:10.987Z,5.44
2022-12-27T09:08:38.221Z,5.39
2022-12-27T09:11:09.166Z,5.39
2022-12-27T09:13:36.076Z,5.39
2022-12-27T09:16:06.590Z,5.31
2022-12-27T09:18:33.571Z,5.45
2022-12-27T09:21:04.903Z,5.47
2022-12-27T09:23:31.717Z,5.36
2022-12-27T09:25:58.577Z,5.47
2022-12-27T09:28:25.454Z,5.45
2022-12-27T09:30:52.299Z,5.48
2022-12-27T09:33:19.221Z,5.67
2022-12-27T09:35:46.215Z,5.70
2022-12-27T09:38:13.031Z,5.65
2022-12-27T09:40:50.647Z,5.52
2022-12-27T09:43:25.402Z,5.53
2022-12-27T09:45:56.577Z,5.57
2022-12-27T09:48:38.541Z,5.67
2022-12-27T09:51:09.917Z,5.72
2022-12-27T09:53:55.346Z,5.75
2022-12-27T09:56:46.894Z,5.95
2022-12-27T09:59:21.771Z,6.12
2022-12-27T10:01:50.013Z,6.20
2022-12-27T10:04:17.950Z,6.13
2022-12-27T10:06:44.810Z,5.89
2022-12-27T10:09:30.239Z,5.95
2022-12-27T10:12:29.952Z,5.82
2022-12-27T10:15:08.904Z,5.89
2022-12-27T10:17:38.519Z,5.97
2022-12-27T10:20:08.131Z,5.97
2022-12-27T10:22:42.225Z,6.04
2022-12-27T10:25:13.289Z,6.12
2022-12-27T10:27:41.484Z,6.16
2022-12-27T10:30:16.383Z,6.32
2022-12-27T10:32:43.787Z,6.46
2022-12-27T10:35:14.164Z,6.31
2022-12-27T10:37:40.934Z,6.24
2022-12-27T10:40:10.913Z,6.37
2022-12-27T10:42:39.703Z,6.33
2022-12-27T10:45:26.553Z,6.37
2022-12-27T10:47:58.373Z,6.42
2022-12-27T10:50:28.497Z,6.72
2022-12-27T10:52:57.676Z,6.83
2022-12-27T10:55:33.370Z,7.06
2022-12-27T10:58:18.698Z,7.15
2022-12-27T11:00:58.085Z,6.90
2022-12-27T11:03:26.221Z,6.77
2022-12-27T11:06:00.497Z,6.80
2022-12-27T11:08:27.415Z,6.64
2022-12-27T11:11:11.723Z,6.67
2022-12-27T11:13:38.607Z,7.23
2022-12-27T11:16:06.209Z,7.40
2022-12-27T11:18:36.260Z,7.41
2022-12-27T11:21:03.456Z,7.19
2022-12-27T11:23:36.024Z,6.90
2022-12-27T11:26:04.873Z,6.99
2022-12-27T11:28:39.197Z,6.80
2022-12-27T11:31:16.805Z,7.12
2022-12-27T11:33:51.401Z,7.26
2022-12-27T11:36:24.138Z,7.46
2022-12-27T11:38:51.071Z,7.69
2022-12-27T11:41:37.758Z,7.83
2022-12-27T11:44:13.548Z,7.65
2022-12-27T11:46:44.053Z,7.62
2022-12-27T11:49:19.799Z,7.41
2022-12-27T11:51:53.092Z,7.22
2022-12-27T11:54:29.769Z,7.08
2022-12-27T11:57:05.731Z,7.21
2022-12-27T11:59:50.988Z,7.00
2022-12-27T12:02:25.089Z,6.92
2022-12-27T12:05:07.201Z,6.78
2022-12-27T12:07:37.007Z,6.79
2022-12-27T12:10:14.318Z,6.84
2022-12-27T12:13:00.672Z,6.68
2022-12-27T12:15:30.539Z,6.69
2022-12-27T12:18:03.184Z,6.64
2022-12-27T12:20:29.965Z,6.49
2022-12-27T12:23:05.796Z,6.53
2022-12-27T12:25:43.371Z,6.61
2022-12-27T12:28:30.383Z,6.53
2022-12-27T12:30:57.006Z,6.93
2022-12-27T12:33:26.826Z,6.84
2022-12-27T12:36:02.601Z,6.79
2022-12-27T12:38:29.389Z,6.85
2022-12-27T12:41:02.164Z,6.97
2022-12-27T12:43:47.575Z,7.04
2022-12-27T12:46:20.566Z,7.07
2022-12-27T12:49:04.363Z,7.17
2022-12-27T12:51:49.154Z,7.12
2022-12-27T12:54:20.283Z,6.97
2022-12-27T12:56:47.087Z,6.95
2022-12-27T12:59:38.904Z,7.02
2022-12-27T13:02:24.771Z,7.20
2022-12-27T13:04:51.665Z,7.22
2022-12-27T13:07:18.489Z,7.00
2022-12-27T13:10:04.121Z,7.03
2022-12-27T13:12:33.961Z,6.92
2022-12-27T13:15:06.654Z,6.97
2022-12-27T13:17:42.667Z,6.76
2022-12-27T13:20:18.467Z,6.94
2022-12-27T13:22:45.860Z,6.84
2022-12-27T13:25:15.593Z,6.93
2022-12-27T13:27:57.499Z,6.96
2022-12-27T13:30:29.608Z,7.08
2022-12-27T13:33:16.643Z,6.99
2022-12-27T13:36:02.344Z,7.01
2022-12-27T13:38:35.021Z,7.13
2022-12-27T13:41:17.162Z,7.25
2022-12-27T13:44:05.384Z,7.30
2022-12-27T13:46:46.244Z,7.28
2022-12-27T13:49:15.868Z,7.24
2022-12-27T13:51:44.536Z,7.33
2022-12-27T13:54:11.353Z,7.20
2022-12-27T13:56:55.364Z,7.22
2022-12-27T13:59:25.287Z,6.99
2022-12-27T14:02:12.179Z,7.16
2022-12-27T14:04:42.356Z,7.33
2022-12-27T14:07:09.139Z,7.47
2022-12-27T14:09:50.738Z,7.44
2022-12-27T14:12:17.540Z,7.32
2022-12-27T14:14:45.621Z,7.43
2022-12-27T14:17:31.293Z,7.52
2022-12-27T14:20:06.908Z,7.54
2022-12-27T14:22:59.517Z,7.49
2022-12-27T14:25:32.553Z,7.45
2022-12-27T14:28:15.466Z,7.45
2022-12-27T14:30:55.212Z,7.26
2022-12-27T14:33:30.993Z,7.12
2022-12-27T14:36:16.516Z,7.06
2022-12-27T14:39:08.568Z,6.94
2022-12-27T14:41:44.461Z,6.78
2022-12-27T14:44:23.254Z,6.91
2022-12-27T14:47:08.657Z,7.11
2022-12-27T14:50:04.019Z,7.04
2022-12-27T14:53:06.857Z,6.90
2022-12-27T14:55:41.830Z,6.85
2022-12-27T14:58:11.728Z,6.82
2022-12-27T15:00:57.443Z,6.80
2022-12-27T15:03:43.388Z,6.70
2022-12-27T15:06:15.519Z,6.73
2022-12-27T15:09:07.181Z,6.76
2022-12-27T15:11:37.143Z,6.79
2022-12-27T15:14:06.892Z,6.80
2022-12-27T15:16:45.865Z,6.58
2022-12-27T15:19:19.476Z,6.54
2022-12-27T15:21:49.145Z,6.44
2022-12-27T15:24:29.869Z,6.41
2022-12-27T15:26:59.870Z,6.16
2022-12-27T15:29:35.866Z,6.09
2022-12-27T15:32:05.487Z,6.01
2022-12-27T15:34:32.404Z,6.12
2022-12-27T15:36:59.396Z,6.09
2022-12-27T15:39:29.340Z,6.05
2022-12-27T15:42:14.339Z,5.95
2022-12-27T15:44:56.168Z,5.89
2022-12-27T15:47:32.487Z,5.90
2022-12-27T15:50:22.384Z,5.74
2022-12-27T15:52:54.934Z,5.79
2022-12-27T15:55:40.446Z,5.65
2022-12-27T15:58:23.016Z,5.65
2022-12-27T16:01:08.499Z,5.67
2022-12-27T16:03:37.004Z,5.59
2022-12-27T16:06:05.036Z,5.38
2022-12-27T16:08:35.024Z,5.50
2022-12-27T16:11:03.139Z,5.45
2022-12-27T16:13:41.413Z,5.42
2022-12-27T16:16:30.104Z,5.34
2022-12-27T16:19:17.219Z,5.37
2022-12-27T16:21:45.693Z,5.24
2022-12-27T16:24:20.461Z,5.18
2022-12-27T16:26:56.957Z,5.22
2022-12-27T16:29:26.372Z,5.33
2022-12-27T16:32:11.440Z,5.20
2022-12-27T16:34:38.596Z,5.19
2022-12-27T16:37:05.457Z,5.16
2022-12-27T16:39:51.693Z,5.19
2022-12-27T16:42:23.304Z,4.99
2022-12-27T16:44:53.162Z,4.97
2022-12-27T16:47:30.213Z,5.03
2022-12-27T16:49:57.071Z,4.95
2022-12-27T16:52:27.162Z,4.81
2022-12-27T16:55:12.249Z,4.98
2022-12-27T16:57:40.867Z,4.95
2022-12-27T17:00:07.671Z,4.82
2022-12-27T17:02:39.836Z,4.81
2022-12-27T17:05:29.982Z,4.67
2022-12-27T17:07:56.797Z,4.57
2022-12-27T17:10:42.114Z,4.55
2022-12-27T17:13:15.294Z,4.42
2022-12-27T17:16:13.532Z,4.53
2022-12-27T17:18:52.507Z,4.44
2022-12-27T17:21:27.764Z,4.41
2022-12-27T17:24:05.447Z,4.36
2022-12-27T17:26:38.387Z,4.32
2022-12-27T17:29:05.199Z,4.63
2022-12-27T17:31:33.091Z,4.49
2022-12-27T17:34:24.365Z,4.31
2022-12-27T17:37:03.066Z,4.20
2022-12-27T17:39:49.174Z,4.21
2022-12-27T17:42:42.129Z,4.15
2022-12-27T17:45:17.610Z,4.08
2022-12-27T17:47:54.425Z,4.04
2022-12-27T17:50:23.906Z,4.02
2022-12-27T17:53:27.677Z,3.99
2022-12-27T17:56:20.916Z,3.92
2022-12-27T17:58:48.784Z,3.84
2022-12-27T18:01:15.850Z,3.89
2022-12-27T18:03:44.671Z,3.87
2022-12-27T18:06:11.650Z,3.80
2022-12-27T18:08:39.700Z,3.78
2022-12-27T18:11:07.004Z,3.71
2022-12-27T18:13:37.825Z,3.71
2022-12-27T18:16:19.473Z,3.66
2022-12-27T18:18:47.669Z,3.74
2022-12-27T18:21:44.647Z,3.68
2022-12-27T18:24:23.336Z,3.64
2022-12-27T18:26:59.515Z,3.61
2022-12-27T18:29:26.433Z,3.68
2022-12-27T18:31:55.594Z,3.75
2022-12-27T18:34:28.834Z,3.70
2022-12-27T18:37:00.302Z,3.67
2022-12-27T18:39:32.211Z,3.61
2022-12-27T18:42:00.378Z,3.60
2022-12-27T18:44:29.171Z,3.61
2022-12-27T18:46:58.279Z,3.56
2022-12-27T18:49:32.475Z,3.62
2022-12-27T18:52:00.072Z,3.53
2022-12-27T18:54:30.295Z,3.48
2022-12-27T18:56:57.662Z,3.49
2022-12-27T18:59:36.001Z,3.51
2022-12-27T19:02:22.888Z,3.47
2022-12-27T19:05:12.535Z,3.58
2022-12-27T19:07:39.729Z,3.54
2022-12-27T19:10:18.488Z,3.54
2022-12-27T19:12:46.224Z,3.43
2022-12-27T19:15:22.624Z,3.35
2022-12-27T19:17:50.966Z,3.48
2022-12-27T19:20:20.723Z,3.54
2022-12-27T19:22:47.502Z,3.53
2022-12-27T19:25:20.401Z,3.79
2022-12-27T19:27:56.565Z,3.64
2022-12-27T19:30:34.311Z,3.58
2022-12-27T19:33:02.374Z,3.59
2022-12-27T19:35:29.211Z,3.51
2022-12-27T19:37:57.194Z,3.48
2022-12-27T19:40:24.242Z,3.49
2022-12-27T19:42:51.103Z,3.54
2022-12-27T19:45:19.240Z,3.74
2022-12-27T19:47:49.327Z,3.72
2022-12-27T19:50:16.818Z,3.70
2022-12-27T19:52:43.711Z,3.67
2022-12-27T19:55:15.874Z,3.64
2022-12-27T19:57:44.055Z,3.57
2022-12-27T20:00:15.410Z,3.53
2022-12-27T20:02:42.346Z,3.47
2022-12-27T20:05:10.135Z,3.61
2022-12-27T20:07:37.198Z,3.57
2022-12-27T20:10:04.760Z,3.63
2022-12-27T20:12:31.599Z,3.71
2022-12-27T20:14:58.420Z,3.70
2022-12-27T20:17:25.296Z,3.63
2022-12-27T20:19:52.267Z,3.60
2022-12-27T20:22:19.137Z,3.55
2022-12-27T20:24:47.081Z,3.57
2022-12-27T20:27:14.052Z,3.48
2022-12-27T20:29:40.850Z,3.47
2022-12-27T20:32:07.922Z,3.43
2022-12-27T20:34:34.753Z,3.30
2022-12-27T20:37:01.763Z,3.44
2022-12-27T20:39:28.613Z,3.31
2022-12-27T20:41:56.168Z,3.37
2022-12-27T20:44:23.001Z,3.38
2022-12-27T20:46:50.651Z,3.39
2022-12-27T20:49:17.487Z,3.58
2022-12-27T20:51:44.304Z,3.42
2022-12-27T20:54:13.174Z,3.45
2022-12-27T20:56:40.002Z,3.42
2022-12-27T20:59:07.117Z,3.47
2022-12-27T21:01:34.229Z,3.57
2022-12-27T21:04:01.153Z,3.53
2022-12-27T21:06:29.078Z,3.68
2022-12-27T21:08:58.256Z,3.64
2022-12-27T21:11:27.125Z,3.67
2022-12-27T21:13:54.477Z,3.81
2022-12-27T21:16:22.578Z,3.87
2022-12-27T21:18:49.542Z,3.96
2022-12-27T21:21:19.777Z,3.96
2022-12-27T21:23:47.772Z,3.98
2022-12-27T21:26:21.792Z,3.95
2022-12-27T21:28:49.039Z,3.86
2022-12-27T21:31:17.240Z,3.81
2022-12-27T21:33:44.663Z,3.85
2022-12-27T21:36:15.989Z,3.82
2022-12-27T21:38:43.021Z,3.93
2022-12-27T21:41:20.498Z,3.96
2022-12-27T21:43:48.795Z,4.04
2022-12-27T21:46:19.807Z,4.02
2022-12-27T21:48:47.055Z,3.96
2022-12-27T21:51:15.374Z,4.02
2022-12-27T21:53:42.553Z,4.08
2022-12-27T21:56:10.957Z,4.12
2022-12-27T21:58:38.807Z,3.97
2022-12-27T22:01:08.919Z,4.15
2022-12-27T22:03:37.374Z,4.04
2022-12-27T22:06:10.682Z,4.04
2022-12-27T22:08:37.743Z,4.05
2022-12-27T22:11:04.693Z,4.06
2022-12-27T22:13:32.835Z,4.20
2022-12-27T22:16:00.858Z,4.09
2022-12-27T22:18:31.318Z,4.09
2022-12-27T22:20:59.280Z,4.07
2022-12-27T22:23:26.463Z,4.19
2022-12-27T22:25:53.274Z,4.36
2022-12-27T22:28:20.835Z,4.36
2022-12-27T22:30:47.715Z,4.34
2022-12-27T22:33:14.943Z,4.48
2022-12-27T22:35:42.180Z,4.46
2022-12-27T22:38:09.417Z,4.50
2022-12-27T22:40:46.069Z,4.42
2022-12-27T22:43:13.939Z,4.52
2022-12-27T22:45:41.877Z,4.46
2022-12-27T22:48:08.802Z,4.41
2022-12-27T22:50:37.008Z,4.33
2022-12-27T22:53:03.887Z,4.29
2022-12-27T22:55:30.723Z,4.27
2022-12-27T22:57:57.553Z,4.45
2022-12-27T23:00:24.357Z,4.37
2022-12-27T23:02:51.258Z,3.57
2022-12-27T23:05:18.125Z,4.35
2022-12-27T23:08:05.748Z,4.28
2022-12-27T23:10:31.773Z,4.19
2022-12-27T23:12:58.612Z,4.28
2022-12-27T23:15:25.563Z,4.30
2022-12-27T23:17:52.975Z,4.37
2022-12-27T23:20:19.919Z,4.38
2022-12-27T23:22:46.739Z,4.42
2022-12-27T23:25:13.649Z,4.44
2022-12-27T23:27:40.515Z,4.46
2022-12-27T23:30:07.661Z,4.47
2022-12-27T23:32:34.480Z,4.34
2022-12-27T23:35:01.468Z,4.48
2022-12-27T23:37:28.390Z,4.41
2022-12-27T23:39:55.195Z,4.53
2022-12-27T23:42:22.019Z,4.50
2022-12-27T23:44:48.899Z,4.49
2022-12-27T23:47:15.754Z,3.86
2022-12-27T23:49:42.562Z,4.51
2022-12-27T23:52:09.419Z,4.49
2022-12-27T23:54:36.521Z,4.53
2022-12-27T23:57:20.363Z,4.61
2022-12-27T23:59:49.768Z,4.62
